createdAt,value
2022-09-28T00:00:03.472Z,100.00
2022-09-28T00:02:40.566Z,100.00
2022-09-28T00:05:09.088Z,100.00
2022-09-28T00:07:36.616Z,100.00
2022-09-28T00:10:04.365Z,100.00
2022-09-28T00:12:32.104Z,100.00
2022-09-28T00:14:59.727Z,100.00
2022-09-28T00:17:28.613Z,100.00
2022-09-28T00:19:57.955Z,100.00
2022-09-28T00:22:25.492Z,100.00
2022-09-28T00:24:53.054Z,100.00
2022-09-28T00:27:20.690Z,100.00
2022-09-28T00:29:48.289Z,100.00
2022-09-28T00:32:16.603Z,100.00
2022-09-28T00:34:46.659Z,100.00
2022-09-28T00:37:15.308Z,100.00
2022-09-28T00:39:43.903Z,100.00
2022-09-28T00:42:14.259Z,100.00
2022-09-28T00:44:45.272Z,100.00
2022-09-28T00:47:44.359Z,100.00
2022-09-28T00:50:19.199Z,100.00
2022-09-28T00:52:53.129Z,100.00
2022-09-28T00:55:26.204Z,100.00
2022-09-28T00:57:57.862Z,100.00
2022-09-28T01:00:25.612Z,100.00
2022-09-28T01:02:53.400Z,100.00
2022-09-28T01:05:24.171Z,100.00
2022-09-28T01:07:52.164Z,100.00
2022-09-28T01:10:19.758Z,100.00
2022-09-28T01:12:47.371Z,100.00
2022-09-28T01:15:15.810Z,100.00
2022-09-28T01:17:56.553Z,100.00
2022-09-28T01:20:55.748Z,100.00
2022-09-28T01:23:49.528Z,100.00
2022-09-28T01:26:50.432Z,100.00
2022-09-28T01:29:27.619Z,100.00
2022-09-28T01:32:02.248Z,100.00
2022-09-28T01:34:34.463Z,100.00
2022-09-28T01:37:05.271Z,100.00
2022-09-28T01:39:38.675Z,100.00
2022-09-28T01:42:11.896Z,100.00
2022-09-28T01:44:43.910Z,100.00
2022-09-28T01:47:14.971Z,100.00
2022-09-28T01:49:46.904Z,100.00
2022-09-28T01:52:16.307Z,100.00
2022-09-28T01:54:51.540Z,100.00
2022-09-28T01:57:26.550Z,100.00
2022-09-28T02:00:00.369Z,100.00
2022-09-28T02:02:34.923Z,100.00
2022-09-28T02:05:08.807Z,100.00
2022-09-28T02:07:42.389Z,100.00
2022-09-28T02:10:15.941Z,100.00
2022-09-28T02:12:49.648Z,100.00
2022-09-28T02:15:21.540Z,100.00
2022-09-28T02:17:50.040Z,100.00
2022-09-28T02:20:18.210Z,100.00
2022-09-28T02:22:51.479Z,100.00
2022-09-28T02:25:25.862Z,100.00
2022-09-28T02:28:00.892Z,100.00
2022-09-28T02:30:31.295Z,100.00
2022-09-28T02:33:04.361Z,100.00
2022-09-28T02:35:33.890Z,100.00
2022-09-28T02:38:01.542Z,100.00
2022-09-28T02:40:33.222Z,100.00
2022-09-28T02:43:10.452Z,100.00
2022-09-28T02:45:52.061Z,100.00
2022-09-28T02:48:43.912Z,100.00
2022-09-28T02:51:22.971Z,100.00
2022-09-28T02:54:18.514Z,100.00
2022-09-28T02:57:11.976Z,100.00
2022-09-28T02:59:48.852Z,100.00
2022-09-28T03:02:25.701Z,100.00
2022-09-28T03:05:16.570Z,100.00
2022-09-28T03:07:51.493Z,100.00
2022-09-28T03:10:26.794Z,100.00
2022-09-28T03:12:55.901Z,100.00
2022-09-28T03:15:27.320Z,100.00
2022-09-28T03:17:57.463Z,100.00
2022-09-28T03:20:25.799Z,100.00
2022-09-28T03:23:12.703Z,100.00
2022-09-28T03:25:41.558Z,100.00
2022-09-28T03:28:09.396Z,100.00
2022-09-28T03:30:43.334Z,100.00
2022-09-28T03:33:11.218Z,100.00
2022-09-28T03:35:39.563Z,100.00
2022-09-28T03:38:07.182Z,100.00
2022-09-28T03:40:38.623Z,100.00
2022-09-28T03:43:06.322Z,100.00
2022-09-28T03:45:34.082Z,100.00
2022-09-28T03:48:03.122Z,100.00
2022-09-28T03:50:30.804Z,100.00
2022-09-28T03:53:03.638Z,100.00
2022-09-28T03:55:31.599Z,100.00
2022-09-28T03:57:59.339Z,100.00
2022-09-28T04:00:27.481Z,100.00
2022-09-28T04:02:56.196Z,100.00
2022-09-28T04:05:25.287Z,100.00
2022-09-28T04:07:56.062Z,100.00
2022-09-28T04:10:23.934Z,100.00
2022-09-28T04:12:55.281Z,100.00
2022-09-28T04:15:23.000Z,100.00
2022-09-28T04:17:50.636Z,100.00
2022-09-28T04:20:40.944Z,100.00
2022-09-28T04:23:12.920Z,100.00
2022-09-28T04:25:40.571Z,100.00
2022-09-28T04:28:27.406Z,100.00
2022-09-28T04:30:55.079Z,100.00
2022-09-28T04:33:22.885Z,100.00
2022-09-28T04:35:51.787Z,100.00
2022-09-28T04:38:35.626Z,100.00
2022-09-28T04:41:08.035Z,100.00
2022-09-28T04:43:35.756Z,100.00
2022-09-28T04:46:05.486Z,100.00
2022-09-28T04:48:39.817Z,100.00
2022-09-28T04:51:22.441Z,100.00
2022-09-28T04:53:50.059Z,100.00
2022-09-28T04:56:20.038Z,100.00
2022-09-28T04:58:51.916Z,100.00
2022-09-28T05:01:24.268Z,100.00
2022-09-28T05:03:58.054Z,100.00
2022-09-28T05:06:35.584Z,100.00
2022-09-28T05:09:06.539Z,100.00
2022-09-28T05:11:34.351Z,100.00
2022-09-28T05:14:02.430Z,100.00
2022-09-28T05:16:33.623Z,100.00
2022-09-28T05:19:19.856Z,100.00
2022-09-28T05:21:49.155Z,100.00
2022-09-28T05:24:16.768Z,100.00
2022-09-28T05:26:49.803Z,100.00
2022-09-28T05:29:17.727Z,100.00
2022-09-28T05:31:45.451Z,100.00
2022-09-28T05:34:18.438Z,100.00
2022-09-28T05:36:46.647Z,100.00
2022-09-28T05:39:15.569Z,100.00
2022-09-28T05:41:43.394Z,100.00
2022-09-28T05:44:11.330Z,100.00
2022-09-28T05:46:39.092Z,100.00
2022-09-28T05:49:06.719Z,100.00
2022-09-28T05:51:34.289Z,100.00
2022-09-28T05:54:05.646Z,100.00
2022-09-28T05:56:37.832Z,100.00
2022-09-28T05:59:07.662Z,100.00
2022-09-28T06:01:35.422Z,100.00
2022-09-28T06:04:04.517Z,100.00
2022-09-28T06:06:32.340Z,100.00
2022-09-28T06:08:59.859Z,100.00
2022-09-28T06:11:40.040Z,100.00
2022-09-28T06:14:19.849Z,100.00
2022-09-28T06:16:47.515Z,100.00
2022-09-28T06:19:15.363Z,100.00
2022-09-28T06:22:01.246Z,100.00
2022-09-28T06:24:30.713Z,100.00
2022-09-28T06:26:59.620Z,100.00
2022-09-28T06:29:29.154Z,100.00
2022-09-28T06:31:57.744Z,100.00
2022-09-28T06:34:25.672Z,100.00
2022-09-28T06:36:53.806Z,100.00
2022-09-28T06:39:21.448Z,100.00
2022-09-28T06:41:49.103Z,100.00
2022-09-28T06:44:20.138Z,100.00
2022-09-28T06:47:06.359Z,100.00
2022-09-28T06:49:56.795Z,100.00
2022-09-28T06:52:42.900Z,100.00
2022-09-28T06:55:26.784Z,100.00
2022-09-28T06:58:01.904Z,100.00
2022-09-28T07:00:34.987Z,100.00
2022-09-28T07:03:03.316Z,100.00
2022-09-28T07:05:57.238Z,100.00
2022-09-28T07:09:14.743Z,100.00
2022-09-28T07:12:10.079Z,100.00
2022-09-28T07:14:50.191Z,100.00
2022-09-28T07:17:19.461Z,100.00
2022-09-28T07:19:52.643Z,100.00
2022-09-28T07:22:33.334Z,100.00
2022-09-28T07:25:09.433Z,100.00
2022-09-28T07:27:48.173Z,100.00
2022-09-28T07:30:39.416Z,100.00
2022-09-28T07:33:17.443Z,100.00
2022-09-28T07:35:55.644Z,100.00
2022-09-28T07:38:27.875Z,100.00
2022-09-28T07:41:13.924Z,100.00
2022-09-28T07:43:47.641Z,100.00
2022-09-28T07:46:16.774Z,100.00
2022-09-28T07:49:08.352Z,100.00
2022-09-28T07:52:01.652Z,100.00
2022-09-28T07:54:30.216Z,100.00
2022-09-28T07:57:16.297Z,100.00
2022-09-28T08:00:08.863Z,100.00
2022-09-28T08:02:43.876Z,100.00
2022-09-28T08:05:17.040Z,100.00
2022-09-28T08:07:44.682Z,100.00
2022-09-28T08:10:13.025Z,100.00
2022-09-28T08:13:06.370Z,100.00
2022-09-28T08:16:00.900Z,100.00
2022-09-28T08:18:57.729Z,100.00
2022-09-28T08:21:45.061Z,100.00
2022-09-28T08:24:13.642Z,100.00
2022-09-28T08:26:41.299Z,100.00
2022-09-28T08:29:09.177Z,100.00
2022-09-28T08:31:48.658Z,100.00
2022-09-28T08:34:34.585Z,100.00
2022-09-28T08:37:22.086Z,100.00
2022-09-28T08:40:17.263Z,100.00
2022-09-28T08:43:04.253Z,100.00
2022-09-28T08:45:54.898Z,100.00
2022-09-28T08:49:20.989Z,100.00
2022-09-28T08:52:01.923Z,100.00
2022-09-28T08:54:45.912Z,100.00
2022-09-28T08:57:23.639Z,100.00
2022-09-28T08:59:54.500Z,100.00
2022-09-28T09:02:33.315Z,100.00
2022-09-28T09:05:44.660Z,100.00
2022-09-28T09:08:38.216Z,100.00
2022-09-28T09:11:20.092Z,100.00
2022-09-28T09:14:03.811Z,100.00
2022-09-28T09:16:41.012Z,100.00
2022-09-28T09:19:51.121Z,100.00
2022-09-28T09:22:40.668Z,100.00
2022-09-28T09:25:19.734Z,100.00
2022-09-28T09:28:08.284Z,100.00
2022-09-28T09:30:46.236Z,100.00
2022-09-28T09:33:39.320Z,100.00
2022-09-28T09:36:44.340Z,100.00
2022-09-28T09:39:43.843Z,100.00
2022-09-28T09:42:49.053Z,100.00
2022-09-28T09:46:01.691Z,100.00
2022-09-28T09:48:54.015Z,100.00
2022-09-28T09:51:29.899Z,100.00
2022-09-28T09:54:02.927Z,100.00
2022-09-28T09:56:38.444Z,100.00
2022-09-28T09:59:15.212Z,100.00
2022-09-28T10:02:18.386Z,100.00
2022-09-28T10:04:57.228Z,100.00
2022-09-28T10:07:43.109Z,100.00
2022-09-28T10:10:16.804Z,100.00
2022-09-28T10:12:51.039Z,100.00
2022-09-28T10:15:23.701Z,100.00
2022-09-28T10:18:12.062Z,100.00
2022-09-28T10:20:59.944Z,100.00
2022-09-28T10:23:40.764Z,100.00
2022-09-28T10:26:25.100Z,100.00
2022-09-28T10:28:57.329Z,100.00
2022-09-28T10:31:37.186Z,100.00
2022-09-28T10:34:13.991Z,100.00
2022-09-28T10:36:50.631Z,100.00
2022-09-28T10:39:33.202Z,100.00
2022-09-28T10:42:04.204Z,100.00
2022-09-28T10:44:34.967Z,100.00
2022-09-28T10:47:30.517Z,100.00
2022-09-28T10:49:59.899Z,100.00
2022-09-28T10:52:32.956Z,100.00
2022-09-28T10:55:01.462Z,100.00
2022-09-28T10:57:33.628Z,100.00
2022-09-28T11:00:08.128Z,100.00
2022-09-28T11:02:44.710Z,100.00
2022-09-28T11:05:27.739Z,100.00
2022-09-28T11:07:59.780Z,100.00
2022-09-28T11:10:37.150Z,100.00
2022-09-28T11:13:11.998Z,100.00
2022-09-28T11:15:45.127Z,100.00
2022-09-28T11:18:29.492Z,100.00
2022-09-28T11:21:13.122Z,100.00
2022-09-28T11:23:57.886Z,100.00
2022-09-28T11:26:25.890Z,100.00
2022-09-28T11:28:54.628Z,100.00
2022-09-28T11:31:34.344Z,100.00
2022-09-28T11:34:13.864Z,100.00
2022-09-28T11:37:21.958Z,100.00
2022-09-28T11:39:58.378Z,100.00
2022-09-28T11:42:36.880Z,100.00
2022-09-28T11:45:22.289Z,100.00
2022-09-28T11:47:55.271Z,100.00
2022-09-28T11:50:29.387Z,100.00
2022-09-28T11:53:11.729Z,100.00
2022-09-28T11:55:41.539Z,100.00
2022-09-28T11:58:13.801Z,100.00
2022-09-28T12:00:45.737Z,100.00
2022-09-28T12:03:17.412Z,100.00
2022-09-28T12:05:50.178Z,100.00
2022-09-28T12:08:25.183Z,100.00
2022-09-28T12:11:11.272Z,100.00
2022-09-28T12:14:01.702Z,100.00
2022-09-28T12:17:03.693Z,100.00
2022-09-28T12:19:24.904Z,100.00
2022-09-28T12:21:56.937Z,100.00
2022-09-28T12:24:27.564Z,100.00
2022-09-28T12:26:59.147Z,100.00
2022-09-28T12:29:30.512Z,100.00
2022-09-28T12:32:10.942Z,100.00
2022-09-28T12:34:38.531Z,100.00
2022-09-28T12:37:27.122Z,100.00
2022-09-28T12:40:07.362Z,100.00
2022-09-28T12:42:53.469Z,100.00
2022-09-28T12:46:07.047Z,100.00
2022-09-28T12:49:03.039Z,100.00
2022-09-28T12:51:48.606Z,100.00
2022-09-28T12:54:38.913Z,100.00
2022-09-28T12:57:30.061Z,100.00
2022-09-28T13:00:03.735Z,100.00
2022-09-28T13:02:48.939Z,100.00
2022-09-28T13:05:40.656Z,100.00
2022-09-28T13:08:14.810Z,100.00
2022-09-28T13:10:50.137Z,100.00
2022-09-28T13:13:32.386Z,100.00
2022-09-28T13:16:05.674Z,100.00
2022-09-28T13:18:40.464Z,99.23
2022-09-28T13:21:17.051Z,97.71
2022-09-28T13:23:47.425Z,96.46
2022-09-28T13:26:27.067Z,95.44
2022-09-28T13:29:03.469Z,95.45
2022-09-28T13:31:35.956Z,96.12
2022-09-28T13:34:07.103Z,95.72
2022-09-28T13:36:40.476Z,95.54
2022-09-28T13:39:38.374Z,95.45
2022-09-28T13:42:09.034Z,94.91
2022-09-28T13:45:02.794Z,94.56
2022-09-28T13:47:51.538Z,95.16
2022-09-28T13:50:28.722Z,95.51
2022-09-28T13:53:04.414Z,94.51
2022-09-28T13:55:48.346Z,92.16
2022-09-28T13:58:23.460Z,91.09
2022-09-28T14:00:57.713Z,87.47
2022-09-28T14:03:27.752Z,86.55
2022-09-28T14:06:09.865Z,86.26
2022-09-28T14:08:44.656Z,86.84
2022-09-28T14:11:49.114Z,83.36
2022-09-28T14:14:53.234Z,81.90
2022-09-28T14:17:54.786Z,81.42
2022-09-28T14:20:27.825Z,81.34
2022-09-28T14:23:15.098Z,82.43
2022-09-28T14:25:46.091Z,83.92
2022-09-28T14:28:29.567Z,84.98
2022-09-28T14:30:58.181Z,85.24
2022-09-28T14:33:30.256Z,86.02
2022-09-28T14:35:59.251Z,86.74
2022-09-28T14:38:49.918Z,87.57
2022-09-28T14:41:31.190Z,87.68
2022-09-28T14:44:09.340Z,88.06
2022-09-28T14:46:45.395Z,88.48
2022-09-28T14:49:50.264Z,89.19
2022-09-28T14:52:40.219Z,89.55
2022-09-28T14:55:15.449Z,90.08
2022-09-28T14:57:43.306Z,90.17
2022-09-28T15:00:20.419Z,90.50
2022-09-28T15:02:52.838Z,90.85
2022-09-28T15:05:25.276Z,90.76
2022-09-28T15:07:54.484Z,90.44
2022-09-28T15:10:31.234Z,89.70
2022-09-28T15:13:01.192Z,88.79
2022-09-28T15:15:33.404Z,88.96
2022-09-28T15:18:09.639Z,89.49
2022-09-28T15:20:41.530Z,89.50
2022-09-28T15:23:25.336Z,90.04
2022-09-28T15:25:54.425Z,90.06
2022-09-28T15:28:24.160Z,89.36
2022-09-28T15:30:52.355Z,88.91
2022-09-28T15:33:43.891Z,87.93
2022-09-28T15:36:18.820Z,87.31
2022-09-28T15:38:54.816Z,86.51
2022-09-28T15:41:24.830Z,86.81
2022-09-28T15:44:08.363Z,87.59
2022-09-28T15:46:38.553Z,88.62
2022-09-28T15:49:08.290Z,88.94
2022-09-28T15:51:52.115Z,88.39
2022-09-28T15:54:24.822Z,89.04
2022-09-28T15:56:54.935Z,89.33
2022-09-28T15:59:31.673Z,90.11
2022-09-28T16:02:13.578Z,90.54
2022-09-28T16:04:47.997Z,90.13
2022-09-28T16:07:24.194Z,90.88
2022-09-28T16:10:01.023Z,91.04
2022-09-28T16:12:34.710Z,91.14
2022-09-28T16:15:07.546Z,91.13
2022-09-28T16:17:36.350Z,91.85
2022-09-28T16:20:18.499Z,92.33
2022-09-28T16:22:47.816Z,92.65
2022-09-28T16:25:19.516Z,92.70
2022-09-28T16:27:47.108Z,92.96
2022-09-28T16:30:24.101Z,93.30
2022-09-28T16:32:54.111Z,93.33
2022-09-28T16:35:27.629Z,94.01
2022-09-28T16:38:00.231Z,93.78
2022-09-28T16:40:28.713Z,94.05
2022-09-28T16:43:00.056Z,93.91
2022-09-28T16:45:28.349Z,94.02
2022-09-28T16:47:57.566Z,94.47
2022-09-28T16:50:25.736Z,95.01
2022-09-28T16:53:19.004Z,95.38
2022-09-28T16:55:49.490Z,96.06
2022-09-28T16:58:18.462Z,96.77
2022-09-28T17:00:46.184Z,97.02
2022-09-28T17:03:15.826Z,97.37
2022-09-28T17:05:43.993Z,97.98
2022-09-28T17:08:17.326Z,98.38
2022-09-28T17:11:12.889Z,98.49
2022-09-28T17:13:38.564Z,98.84
2022-09-28T17:16:08.841Z,99.10
2022-09-28T17:18:37.750Z,99.49
2022-09-28T17:21:06.802Z,99.81
2022-09-28T17:23:35.800Z,100.00
2022-09-28T17:26:05.604Z,100.00
2022-09-28T17:28:35.931Z,100.00
2022-09-28T17:31:04.226Z,100.00
2022-09-28T17:33:31.964Z,100.00
2022-09-28T17:36:01.639Z,100.00
2022-09-28T17:38:29.836Z,100.00
2022-09-28T17:40:58.888Z,100.00
2022-09-28T17:43:26.563Z,100.00
2022-09-28T17:45:54.188Z,100.00
2022-09-28T17:48:24.170Z,100.00
2022-09-28T17:50:52.635Z,100.00
2022-09-28T17:53:20.294Z,100.00
2022-09-28T17:55:48.195Z,100.00
2022-09-28T17:58:19.205Z,100.00
2022-09-28T18:00:48.056Z,100.00
2022-09-28T18:03:17.989Z,100.00
2022-09-28T18:05:47.480Z,100.00
2022-09-28T18:08:18.008Z,100.00
2022-09-28T18:10:46.827Z,100.00
2022-09-28T18:13:14.723Z,100.00
2022-09-28T18:15:44.468Z,100.00
2022-09-28T18:18:12.880Z,100.00
2022-09-28T18:20:41.316Z,100.00
2022-09-28T18:23:08.948Z,100.00
2022-09-28T18:25:40.277Z,100.00
2022-09-28T18:28:08.092Z,100.00
2022-09-28T18:30:38.802Z,100.00
2022-09-28T18:33:08.786Z,100.00
2022-09-28T18:35:36.862Z,100.00
2022-09-28T18:38:05.106Z,100.00
2022-09-28T18:40:33.121Z,100.00
2022-09-28T18:43:00.892Z,100.00
2022-09-28T18:45:28.644Z,100.00
2022-09-28T18:47:56.370Z,100.00
2022-09-28T18:50:25.395Z,100.00
2022-09-28T18:52:52.997Z,100.00
2022-09-28T18:55:20.715Z,100.00
2022-09-28T18:57:48.601Z,100.00
2022-09-28T19:00:16.477Z,100.00
2022-09-28T19:02:44.110Z,100.00
2022-09-28T19:05:12.192Z,100.00
2022-09-28T19:07:41.129Z,100.00
2022-09-28T19:10:09.583Z,100.00
2022-09-28T19:12:37.201Z,100.00
2022-09-28T19:15:05.303Z,100.00
2022-09-28T19:17:34.049Z,100.00
2022-09-28T19:20:01.908Z,100.00
2022-09-28T19:22:30.443Z,100.00
2022-09-28T19:24:59.603Z,100.00
2022-09-28T19:27:27.129Z,100.00
2022-09-28T19:29:54.712Z,100.00
2022-09-28T19:32:22.323Z,100.00
2022-09-28T19:34:49.851Z,100.00
2022-09-28T19:37:17.436Z,100.00
2022-09-28T19:39:45.317Z,100.00
2022-09-28T19:42:14.272Z,100.00
2022-09-28T19:44:42.075Z,100.00
2022-09-28T19:47:11.533Z,100.00
2022-09-28T19:49:40.568Z,100.00
2022-09-28T19:52:15.591Z,100.00
2022-09-28T19:54:45.138Z,100.00
2022-09-28T19:57:15.752Z,100.00
2022-09-28T19:59:48.398Z,100.00
2022-09-28T20:02:18.483Z,100.00
2022-09-28T20:04:46.098Z,100.00
2022-09-28T20:07:13.830Z,100.00
2022-09-28T20:09:41.959Z,100.00
2022-09-28T20:12:09.832Z,100.00
2022-09-28T20:14:40.416Z,100.00
2022-09-28T20:17:08.596Z,100.00
2022-09-28T20:19:36.256Z,100.00
2022-09-28T20:22:03.942Z,100.00
2022-09-28T20:24:31.633Z,100.00
2022-09-28T20:27:01.041Z,100.00
2022-09-28T20:29:28.676Z,100.00
2022-09-28T20:31:57.717Z,100.00
2022-09-28T20:34:25.313Z,100.00
2022-09-28T20:36:52.861Z,100.00
2022-09-28T20:39:20.734Z,100.00
2022-09-28T20:41:49.646Z,100.00
2022-09-28T20:44:17.305Z,100.00
2022-09-28T20:46:45.140Z,100.00
2022-09-28T20:49:13.995Z,100.00
2022-09-28T20:51:41.636Z,100.00
2022-09-28T20:54:09.340Z,100.00
2022-09-28T20:56:38.191Z,100.00
2022-09-28T20:59:07.527Z,100.00
2022-09-28T21:01:35.934Z,100.00
2022-09-28T21:04:06.835Z,100.00
2022-09-28T21:06:38.145Z,100.00
2022-09-28T21:09:07.150Z,100.00
2022-09-28T21:11:35.541Z,100.00
2022-09-28T21:14:05.973Z,100.00
2022-09-28T21:16:36.013Z,100.00
2022-09-28T21:19:04.370Z,100.00
2022-09-28T21:21:32.025Z,100.00
2022-09-28T21:24:01.936Z,100.00
2022-09-28T21:26:31.850Z,100.00
2022-09-28T21:29:02.040Z,100.00
2022-09-28T21:31:32.574Z,100.00
2022-09-28T21:34:00.556Z,100.00
2022-09-28T21:36:28.121Z,100.00
2022-09-28T21:38:56.126Z,100.00
2022-09-28T21:41:25.607Z,100.00
2022-09-28T21:43:53.598Z,100.00
2022-09-28T21:46:21.286Z,100.00
2022-09-28T21:48:52.620Z,100.00
2022-09-28T21:51:20.941Z,100.00
2022-09-28T21:53:49.417Z,100.00
2022-09-28T21:56:17.408Z,100.00
2022-09-28T21:58:46.364Z,100.00
2022-09-28T22:01:16.508Z,100.00
2022-09-28T22:03:46.548Z,100.00
2022-09-28T22:06:15.252Z,100.00
2022-09-28T22:08:42.835Z,100.00
2022-09-28T22:11:12.491Z,100.00
2022-09-28T22:13:42.336Z,100.00
2022-09-28T22:16:12.047Z,100.00
2022-09-28T22:18:40.254Z,100.00
2022-09-28T22:21:11.124Z,100.00
2022-09-28T22:23:41.052Z,100.00
2022-09-28T22:26:11.624Z,100.00
2022-09-28T22:28:40.584Z,100.00
2022-09-28T22:31:08.219Z,100.00
2022-09-28T22:33:37.132Z,100.00
2022-09-28T22:36:05.240Z,100.00
2022-09-28T22:38:33.306Z,100.00
2022-09-28T22:41:01.322Z,100.00
2022-09-28T22:43:29.083Z,100.00
2022-09-28T22:46:03.179Z,100.00
2022-09-28T22:48:31.096Z,100.00
2022-09-28T22:51:00.633Z,100.00
2022-09-28T22:53:28.747Z,100.00
2022-09-28T22:55:57.639Z,100.00
2022-09-28T22:58:25.584Z,100.00
2022-09-28T23:00:53.348Z,100.00
2022-09-28T23:03:21.522Z,100.00
2022-09-28T23:05:58.148Z,100.00
2022-09-28T23:08:27.599Z,100.00
2022-09-28T23:10:55.386Z,100.00
2022-09-28T23:13:23.308Z,100.00
2022-09-28T23:15:58.152Z,100.00
2022-09-28T23:18:26.036Z,100.00
2022-09-28T23:20:54.505Z,100.00
2022-09-28T23:23:22.245Z,100.00
2022-09-28T23:25:51.240Z,100.00
2022-09-28T23:28:19.083Z,100.00
2022-09-28T23:30:47.188Z,100.00
2022-09-28T23:33:15.912Z,100.00
2022-09-28T23:35:43.948Z,100.00
2022-09-28T23:38:13.405Z,100.00
2022-09-28T23:40:41.660Z,100.00
2022-09-28T23:43:10.676Z,100.00
2022-09-28T23:45:38.223Z,100.00
2022-09-28T23:48:06.219Z,100.00
2022-09-28T23:50:33.838Z,100.00
2022-09-28T23:53:02.271Z,100.00
2022-09-28T23:55:29.773Z,100.00
2022-09-28T23:57:58.629Z,100.00
